Time;durP1;ratioP1;P1;durP2;ratioP2;P2;SDS_P1;SDS_P2;PMS_P1;PMS_P2;Temp;Humidity;BMP_temperature;BMP_pressure;BME280_temperature;BME280_humidity;BME280_pressure;Samples;Min_cycle;Max_cycle;Signal;HPM_P1;HPM_P2
2023/09/08 00:01:19;;;;;;;7.13;4.82;;;21.10;99.90;;;;;;5093140;28;20116;-61
2023/09/08 00:03:45;;;;;;;8.10;5.07;;;21.10;99.90;;;;;;5093696;28;20027;-61
2023/09/08 00:06:11;;;;;;;10.65;5.40;;;21.00;99.90;;;;;;5093547;28;20449;-62
2023/09/08 00:08:36;;;;;;;5.18;4.53;;;21.00;99.90;;;;;;5093664;28;20390;-62
2023/09/08 00:11:02;;;;;;;8.73;5.05;;;21.00;99.90;;;;;;5093280;28;20548;-62
2023/09/08 00:13:27;;;;;;;8.02;5.35;;;20.90;99.90;;;;;;5093876;28;20089;-61
2023/09/08 00:15:53;;;;;;;9.55;4.93;;;21.00;99.90;;;;;;5093614;28;20048;-61
2023/09/08 00:18:18;;;;;;;7.65;4.20;;;20.90;99.90;;;;;;5093480;28;20063;-62
2023/09/08 00:20:44;;;;;;;6.38;5.35;;;20.90;99.90;;;;;;5093623;28;20090;-62
2023/09/08 00:23:09;;;;;;;7.80;4.85;;;20.80;99.90;;;;;;5093496;28;20024;-62
2023/09/08 00:25:35;;;;;;;9.70;5.00;;;20.80;99.90;;;;;;5093465;28;20406;-61
2023/09/08 00:28:00;;;;;;;7.05;5.30;;;20.80;99.90;;;;;;5093663;28;20475;-62
2023/09/08 00:30:26;;;;;;;6.57;4.70;;;20.70;99.90;;;;;;5093392;28;20388;-62
2023/09/08 00:32:51;;;;;;;8.63;4.50;;;20.80;99.90;;;;;;5094166;28;20035;-62
2023/09/08 00:35:17;;;;;;;6.68;4.80;;;20.70;99.90;;;;;;5095957;28;20036;-61
2023/09/08 00:37:43;;;;;;;8.55;5.57;;;20.70;99.90;;;;;;5096908;28;20021;-60
2023/09/08 00:40:09;;;;;;;9.27;5.50;;;20.70;99.90;;;;;;5093359;28;20032;-62
2023/09/08 00:42:35;;;;;;;6.13;4.75;;;20.60;99.90;;;;;;5093774;28;20521;-62
2023/09/08 00:45:01;;;;;;;6.90;5.03;;;20.60;99.90;;;;;;5093249;28;20016;-61
2023/09/08 00:47:26;;;;;;;9.00;5.25;;;20.60;99.90;;;;;;5093657;28;20103;-62
2023/09/08 00:49:52;;;;;;;5.95;4.80;;;20.50;99.90;;;;;;5093489;28;20051;-62
2023/09/08 00:52:17;;;;;;;7.43;4.85;;;20.50;99.90;;;;;;5093223;28;20393;-62
2023/09/08 00:54:43;;;;;;;6.75;4.82;;;20.50;99.90;;;;;;5092916;28;20031;-62
2023/09/08 00:57:09;;;;;;;7.13;5.15;;;20.50;99.90;;;;;;5093236;28;20036;-62
2023/09/08 00:59:36;;;;;;;5.68;4.70;;;20.50;99.90;;;;;;5093054;28;20025;-63
2023/09/08 01:02:02;;;;;;;7.60;5.35;;;20.40;99.90;;;;;;5093092;28;20107;-62
2023/09/08 01:04:28;;;;;;;7.80;5.47;;;20.40;99.90;;;;;;5093269;28;20027;-63
2023/09/08 01:06:55;;;;;;;6.57;5.38;;;20.40;99.90;;;;;;5093333;28;20371;-62
2023/09/08 01:09:21;;;;;;;8.38;5.63;;;20.30;99.90;;;;;;5093563;28;20036;-63
2023/09/08 01:11:47;;;;;;;7.10;4.93;;;20.30;99.90;;;;;;5092649;28;20170;-62
2023/09/08 01:14:15;;;;;;;6.20;4.70;;;20.30;99.90;;;;;;5096656;28;20103;-63
2023/09/08 01:16:41;;;;;;;7.97;5.53;;;20.30;99.90;;;;;;5096861;28;20027;-62
2023/09/08 01:19:13;;;;;;;6.78;5.20;;;20.20;99.90;;;;;;5096975;28;20016;-61
2023/09/08 01:22:05;;;;;;;6.75;5.32;;;20.20;99.90;;;;;;5097228;28;20036;-62
2023/09/08 01:24:34;;;;;;;5.20;4.70;;;20.20;99.90;;;;;;5098139;28;20028;-61
2023/09/08 01:27:00;;;;;;;8.98;5.30;;;20.10;99.90;;;;;;5096763;28;20028;-62
2023/09/08 01:29:27;;;;;;;6.70;4.57;;;20.10;99.90;;;;;;5096237;28;20080;-62
2023/09/08 01:31:53;;;;;;;7.35;5.55;;;20.10;99.90;;;;;;5096505;28;20030;-61
2023/09/08 01:34:19;;;;;;;6.68;5.20;;;20.10;99.90;;;;;;5096555;28;20032;-62
2023/09/08 01:36:45;;;;;;;7.05;5.13;;;20.00;99.90;;;;;;5096673;28;20026;-59
2023/09/08 01:39:11;;;;;;;7.68;5.30;;;20.00;99.90;;;;;;5096331;28;20082;-61
2023/09/08 01:41:36;;;;;;;9.25;5.30;;;19.90;99.90;;;;;;5096002;28;20028;-64
2023/09/08 01:44:07;;;;;;;8.93;5.20;;;19.90;99.90;;;;;;5096541;28;20028;-61
2023/09/08 01:46:33;;;;;;;8.05;5.55;;;19.80;99.90;;;;;;5096538;28;20020;-61
2023/09/08 01:48:59;;;;;;;9.15;5.55;;;19.90;99.90;;;;;;5096394;28;20043;-62
2023/09/08 01:51:24;;;;;;;6.75;5.50;;;19.80;99.90;;;;;;5096010;28;20040;-62
2023/09/08 01:53:50;;;;;;;8.80;6.00;;;19.80;99.90;;;;;;5096032;28;20020;-61
2023/09/08 01:56:15;;;;;;;7.70;5.55;;;19.70;99.90;;;;;;5095842;28;20099;-62
2023/09/08 01:58:41;;;;;;;9.32;5.78;;;19.70;99.90;;;;;;5096070;28;20474;-62
2023/09/08 02:01:06;;;;;;;8.50;5.78;;;19.60;99.90;;;;;;5096063;28;20028;-62
2023/09/08 02:03:32;;;;;;;6.90;5.43;;;19.60;99.90;;;;;;5096042;28;20020;-61
2023/09/08 02:05:58;;;;;;;8.45;5.45;;;19.50;99.90;;;;;;5096893;28;20386;-61
2023/09/08 02:08:23;;;;;;;7.18;6.10;;;19.50;99.90;;;;;;5096293;28;20031;-61
2023/09/08 02:10:49;;;;;;;9.18;5.72;;;19.50;99.90;;;;;;5095949;28;20032;-62
2023/09/08 02:13:14;;;;;;;8.32;6.00;;;19.40;99.90;;;;;;5096508;28;20032;-61
2023/09/08 02:15:40;;;;;;;8.77;5.32;;;19.40;99.90;;;;;;5095569;28;20020;-61
2023/09/08 02:18:07;;;;;;;6.50;5.75;;;19.40;99.90;;;;;;5096468;28;20035;-62
2023/09/08 02:20:32;;;;;;;7.45;5.35;;;19.30;99.90;;;;;;5095994;28;20028;-61
2023/09/08 02:23:04;;;;;;;8.90;5.78;;;19.30;99.90;;;;;;5095952;28;20078;-62
2023/09/08 02:25:30;;;;;;;7.70;6.00;;;19.20;99.90;;;;;;5095988;28;20028;-61
2023/09/08 02:27:55;;;;;;;8.40;6.38;;;19.20;99.90;;;;;;5096552;28;20081;-62
2023/09/08 02:30:21;;;;;;;7.28;5.47;;;19.20;99.90;;;;;;5095159;28;20032;-62
2023/09/08 02:32:46;;;;;;;12.02;6.03;;;19.10;99.90;;;;;;5095740;28;20032;-62
2023/09/08 02:35:12;;;;;;;8.20;5.78;;;19.00;99.90;;;;;;5095833;28;20036;-62
2023/09/08 02:37:37;;;;;;;7.90;5.45;;;19.10;99.90;;;;;;5095600;28;20028;-62
2023/09/08 02:40:05;;;;;;;7.53;5.80;;;19.00;99.90;;;;;;5095090;28;20024;-63
2023/09/08 02:42:31;;;;;;;6.57;5.90;;;19.00;99.90;;;;;;5096268;28;20153;-61
2023/09/08 02:44:56;;;;;;;9.23;5.85;;;19.00;99.90;;;;;;5095291;28;20048;-62
2023/09/08 02:47:22;;;;;;;8.73;6.30;;;18.90;99.90;;;;;;5095507;28;20445;-62
2023/09/08 02:49:47;;;;;;;8.13;5.50;;;18.90;99.90;;;;;;5095313;28;20035;-64
2023/09/08 02:52:13;;;;;;;19.88;6.95;;;18.90;99.90;;;;;;5096251;22;20040;-64
2023/09/08 02:54:39;;;;;;;6.35;5.45;;;18.80;99.90;;;;;;5073196;28;20473;-64
2023/09/08 02:57:05;;;;;;;7.93;5.22;;;18.80;99.90;;;;;;5074539;28;20074;-64
2023/09/08 02:59:30;;;;;;;9.52;6.32;;;18.70;99.90;;;;;;5074488;28;20466;-64
2023/09/08 03:01:56;;;;;;;8.48;6.15;;;18.70;99.90;;;;;;5085105;28;20028;-64
2023/09/08 03:04:21;;;;;;;7.75;6.20;;;18.70;99.90;;;;;;5093306;28;20028;-64
2023/09/08 03:06:47;;;;;;;8.18;6.40;;;18.70;99.90;;;;;;5094280;28;20055;-65
2023/09/08 03:09:12;;;;;;;9.80;5.63;;;18.80;99.90;;;;;;5094613;28;20069;-65
2023/09/08 03:11:38;;;;;;;8.48;6.15;;;18.70;99.90;;;;;;5094301;28;20414;-65
2023/09/08 03:14:04;;;;;;;8.13;6.03;;;18.80;99.90;;;;;;5094423;28;20035;-65
2023/09/08 03:16:30;;;;;;;10.85;6.40;;;18.80;99.90;;;;;;5094491;28;20063;-64
2023/09/08 03:18:55;;;;;;;9.45;6.47;;;18.80;99.90;;;;;;5094234;28;20422;-65
2023/09/08 03:21:21;;;;;;;9.63;5.88;;;18.70;99.90;;;;;;5092851;28;20595;-64
2023/09/08 03:23:46;;;;;;;8.95;6.28;;;18.70;99.90;;;;;;5093980;28;20016;-65
2023/09/08 03:26:13;;;;;;;6.55;5.88;;;18.60;99.90;;;;;;5096096;28;20109;-65
2023/09/08 03:28:38;;;;;;;7.47;5.88;;;18.60;99.90;;;;;;5100421;28;20051;-65
2023/09/08 03:31:04;;;;;;;7.78;6.07;;;18.60;99.90;;;;;;5099576;28;20324;-65
2023/09/08 03:33:30;;;;;;;9.40;6.53;;;18.50;99.90;;;;;;5098677;28;20383;-65
2023/09/08 03:35:56;;;;;;;7.43;5.68;;;18.40;99.90;;;;;;5099152;28;20478;-65
2023/09/08 03:38:22;;;;;;;8.63;6.82;;;18.40;99.90;;;;;;5099159;28;20075;-65
2023/09/08 03:40:48;;;;;;;;;;;18.40;99.90;;;;;;5098516;28;20390;-65
2023/09/08 03:43:13;;;;;;;8.23;6.10;;;18.40;99.90;;;;;;5100135;28;19911;-65
2023/09/08 03:45:39;;;;;;;9.02;6.00;;;18.30;99.90;;;;;;5096654;28;20028;-65
2023/09/08 03:48:05;;;;;;;8.48;6.55;;;18.30;99.90;;;;;;5098676;28;20035;-65
2023/09/08 03:50:31;;;;;;;9.35;6.38;;;18.40;99.90;;;;;;5099914;28;20030;-64
2023/09/08 03:52:57;;;;;;;6.80;5.55;;;18.40;99.90;;;;;;5095076;28;20047;-65
2023/09/08 03:55:22;;;;;;;8.80;6.53;;;18.40;99.90;;;;;;5094906;28;20032;-65
2023/09/08 03:57:48;;;;;;;8.05;6.22;;;18.40;99.90;;;;;;5098642;28;20084;-65
2023/09/08 04:00:20;;;;;;;7.15;6.15;;;18.30;99.90;;;;;;5099440;28;20048;-65
2023/09/08 04:02:46;;;;;;;10.45;6.72;;;18.30;99.90;;;;;;5097285;28;20052;-65
2023/09/08 04:05:11;;;;;;;10.45;6.85;;;18.30;99.90;;;;;;5095864;28;20043;-65
2023/09/08 04:07:37;;;;;;;10.00;6.03;;;18.20;99.90;;;;;;5098401;28;20085;-66
2023/09/08 04:10:03;;;;;;;7.65;6.00;;;18.20;99.90;;;;;;5097145;28;20024;-65
2023/09/08 04:12:28;;;;;;;7.85;6.20;;;18.10;99.90;;;;;;5097639;28;20035;-66
2023/09/08 04:14:54;;;;;;;8.98;6.40;;;18.10;99.90;;;;;;5109354;28;20076;-66
2023/09/08 04:17:20;;;;;;;11.18;6.60;;;18.30;99.90;;;;;;5102732;28;20028;-66
2023/09/08 04:19:45;;;;;;;7.75;5.82;;;18.20;99.90;;;;;;5101169;28;20024;-65
2023/09/08 04:22:11;;;;;;;7.40;6.38;;;18.20;99.90;;;;;;5102544;28;20119;-65
2023/09/08 04:24:37;;;;;;;8.52;6.03;;;18.20;99.90;;;;;;5115987;28;20099;-65
2023/09/08 04:27:03;;;;;;;17.75;7.13;;;18.10;99.90;;;;;;5114428;28;20064;-65
2023/09/08 04:29:29;;;;;;;7.82;6.80;;;18.10;99.90;;;;;;5114187;28;20034;-63
2023/09/08 04:31:54;;;;;;;10.23;7.40;;;18.10;99.90;;;;;;5112821;28;20028;-64
2023/09/08 04:34:20;;;;;;;9.27;6.30;;;18.10;99.90;;;;;;5116063;28;20028;-65
2023/09/08 04:36:45;;;;;;;8.57;6.47;;;18.00;99.90;;;;;;5117212;28;20027;-64
2023/09/08 04:39:11;;;;;;;10.48;6.25;;;17.90;99.90;;;;;;5118833;28;20028;-65
2023/09/08 04:41:37;;;;;;;13.40;6.88;;;17.90;99.90;;;;;;5116514;28;20068;-65
2023/09/08 04:44:04;;;;;;;11.32;6.40;;;17.90;99.90;;;;;;5113890;28;20031;-65
2023/09/08 04:46:29;;;;;;;8.38;6.28;;;17.90;99.90;;;;;;5117215;28;20080;-66
2023/09/08 04:48:55;;;;;;;8.32;6.60;;;17.90;99.90;;;;;;5119683;28;20024;-66
2023/09/08 04:51:20;;;;;;;11.90;6.93;;;17.90;99.90;;;;;;5119215;28;20439;-65
2023/09/08 04:53:46;;;;;;;9.77;7.00;;;17.90;99.90;;;;;;5102249;28;20034;-65
2023/09/08 04:56:13;;;;;;;9.40;6.57;;;18.00;99.90;;;;;;5098561;28;20270;-65
2023/09/08 04:58:38;;;;;;;8.60;6.57;;;17.90;99.90;;;;;;5096955;28;20024;-65
2023/09/08 05:01:05;;;;;;;11.80;7.03;;;17.80;99.90;;;;;;5101496;28;20027;-66
2023/09/08 05:03:31;;;;;;;10.02;6.90;;;17.80;99.90;;;;;;5102236;28;20270;-65
2023/09/08 05:05:56;;;;;;;9.70;6.20;;;17.80;99.90;;;;;;5101906;28;20056;-66
2023/09/08 05:08:22;;;;;;;10.45;5.95;;;18.00;99.90;;;;;;5100446;28;20044;-66
2023/09/08 05:10:47;;;;;;;11.13;6.53;;;18.10;99.90;;;;;;5099107;28;20028;-66
2023/09/08 05:13:13;;;;;;;9.52;7.03;;;18.10;99.90;;;;;;5096735;28;20050;-66
2023/09/08 05:15:39;;;;;;;9.90;6.55;;;18.00;99.90;;;;;;5096789;28;20078;-66
2023/09/08 05:18:05;;;;;;;9.10;7.13;;;18.00;99.90;;;;;;5105372;28;20023;-66
2023/09/08 05:20:30;;;;;;;8.02;6.45;;;18.00;99.90;;;;;;5123535;28;20034;-64
2023/09/08 05:22:56;;;;;;;9.77;7.22;;;18.00;99.90;;;;;;5121925;28;20023;-64
2023/09/08 05:25:21;;;;;;;9.27;7.40;;;18.00;99.90;;;;;;5121870;28;20053;-66
2023/09/08 05:27:48;;;;;;;9.45;6.22;;;18.00;99.90;;;;;;5102975;28;20055;-67
2023/09/08 05:30:14;;;;;;;9.30;6.63;;;18.00;99.90;;;;;;5105503;28;20016;-67
2023/09/08 05:32:39;;;;;;;8.88;6.82;;;17.90;99.90;;;;;;5100106;28;20444;-67
2023/09/08 05:35:05;;;;;;;9.30;6.95;;;17.90;99.90;;;;;;5097257;28;20035;-67
2023/09/08 05:37:31;;;;;;;9.90;6.45;;;18.00;99.90;;;;;;5094521;28;20055;-67
2023/09/08 05:39:56;;;;;;;10.50;6.90;;;17.90;99.90;;;;;;5080144;28;20371;-67
2023/09/08 05:42:22;;;;;;;10.88;6.50;;;17.90;99.90;;;;;;5090870;28;20274;-66
2023/09/08 05:44:47;;;;;;;8.83;6.80;;;17.90;99.90;;;;;;5092095;28;20056;-67
2023/09/08 05:47:13;;;;;;;8.05;6.88;;;18.00;99.90;;;;;;5092096;28;20333;-67
2023/09/08 05:49:38;;;;;;;9.57;7.25;;;18.00;99.90;;;;;;5089057;28;20499;-66
2023/09/08 05:52:04;;;;;;;9.07;6.97;;;18.10;99.90;;;;;;5088069;28;20043;-67
2023/09/08 05:54:30;;;;;;;10.35;6.50;;;18.10;99.90;;;;;;5085801;28;20617;-66
2023/09/08 05:56:56;;;;;;;8.52;6.90;;;18.20;99.90;;;;;;5089049;28;20078;-68
2023/09/08 05:59:21;;;;;;;9.95;7.05;;;18.30;99.90;;;;;;5087921;28;20016;-67
2023/09/08 06:01:47;;;;;;;10.02;6.65;;;18.40;99.90;;;;;;5096939;28;20028;-67
2023/09/08 06:04:12;;;;;;;10.68;7.25;;;18.50;99.90;;;;;;5097716;28;20470;-68
2023/09/08 06:06:38;;;;;;;9.10;6.82;;;18.50;99.90;;;;;;5099006;28;20482;-66
2023/09/08 06:09:06;;;;;;;13.20;7.95;;;18.40;99.90;;;;;;5096034;28;20036;-67
2023/09/08 06:11:31;;;;;;;10.32;7.35;;;18.40;99.90;;;;;;5086334;28;20501;-66
2023/09/08 06:13:59;;;;;;;12.07;7.68;;;18.40;99.90;;;;;;5084590;28;20032;-66
2023/09/08 06:16:25;;;;;;;17.33;6.88;;;18.40;99.90;;;;;;5087825;28;20364;-68
2023/09/08 06:18:50;;;;;;;11.35;7.40;;;18.40;99.90;;;;;;5095257;28;20030;-68
2023/09/08 06:21:16;;;;;;;9.90;7.78;;;18.40;99.90;;;;;;5096432;28;20393;-69
2023/09/08 06:23:41;;;;;;;9.27;6.60;;;18.50;99.90;;;;;;5087639;28;20043;-68
2023/09/08 06:26:07;;;;;;;11.48;7.72;;;18.50;99.90;;;;;;5080916;28;20028;-68
2023/09/08 06:28:33;;;;;;;10.27;7.90;;;18.50;99.90;;;;;;5086668;28;20024;-68
2023/09/08 06:30:58;;;;;;;9.80;7.18;;;18.50;99.90;;;;;;5091140;28;20137;-68
2023/09/08 06:33:24;;;;;;;12.73;7.80;;;18.60;99.90;;;;;;5090582;28;20463;-67
2023/09/08 06:35:50;;;;;;;9.60;7.72;;;18.70;99.90;;;;;;5076667;28;20096;-67
2023/09/08 06:38:15;;;;;;;13.98;7.55;;;18.70;99.90;;;;;;5100162;28;20074;-68
2023/09/08 06:40:41;;;;;;;13.73;7.53;;;18.70;99.90;;;;;;5086072;28;20471;-68
2023/09/08 06:43:06;;;;;;;14.18;7.85;;;18.80;99.90;;;;;;5098442;28;20035;-68
2023/09/08 06:45:32;;;;;;;12.13;7.88;;;18.80;99.90;;;;;;5101731;28;20036;-68
2023/09/08 06:47:59;;;;;;;16.95;7.78;;;19.00;99.90;;;;;;5103278;28;20035;-69
2023/09/08 06:50:26;;;;;;;10.57;7.38;;;19.10;99.90;;;;;;5102682;28;20032;-67
2023/09/08 06:52:52;;;;;;;;;;;19.30;99.90;;;;;;5099465;28;20067;-67
2023/09/08 06:55:19;;;;;;;11.52;8.23;;;19.30;99.90;;;;;;5097377;28;19904;-68
2023/09/08 06:57:45;;;;;;;11.02;7.68;;;19.40;99.90;;;;;;5096854;28;20377;-68
2023/09/08 07:00:11;;;;;;;9.50;7.82;;;19.50;99.90;;;;;;5095785;28;20016;-67
2023/09/08 07:02:37;;;;;;;;;;;19.50;99.90;;;;;;5095959;28;20024;-68
2023/09/08 07:05:07;;;;;;;10.00;7.72;;;19.50;99.90;;;;;;5095668;28;20005;-68
2023/09/08 07:07:36;;;;;;;10.63;8.00;;;19.40;99.90;;;;;;5095331;28;20024;-68
2023/09/08 07:10:05;;;;;;;9.77;7.82;;;19.40;99.90;;;;;;5095032;28;20043;-69
2023/09/08 07:12:31;;;;;;;10.77;7.72;;;19.50;99.90;;;;;;5095464;28;20024;-68
2023/09/08 07:14:57;;;;;;;9.65;7.63;;;19.50;99.90;;;;;;5095292;28;20026;-67
2023/09/08 07:17:23;;;;;;;11.60;8.15;;;19.60;99.90;;;;;;5094511;28;20021;-67
2023/09/08 07:19:50;;;;;;;10.48;8.02;;;19.70;99.90;;;;;;5094542;28;20023;-68
2023/09/08 07:22:16;;;;;;;12.00;8.35;;;19.70;99.90;;;;;;5094427;28;20028;-67
2023/09/08 07:24:42;;;;;;;18.52;9.00;;;19.80;99.90;;;;;;5092868;28;20172;-67
2023/09/08 07:27:07;;;;;;;14.20;8.57;;;19.90;99.90;;;;;;5094190;28;20059;-69
2023/09/08 07:29:33;;;;;;;12.57;8.07;;;20.20;99.90;;;;;;5092998;28;20059;-68
2023/09/08 07:31:59;;;;;;;13.65;7.90;;;20.20;99.90;;;;;;5094033;28;20028;-67
2023/09/08 07:34:25;;;;;;;12.93;9.48;;;20.40;99.90;;;;;;5092869;28;20073;-67
2023/09/08 07:36:50;;;;;;;13.07;8.52;;;20.40;99.90;;;;;;5094342;28;20023;-68
2023/09/08 07:39:16;;;;;;;12.95;8.15;;;20.50;99.90;;;;;;5093491;28;20032;-70
2023/09/08 07:41:41;;;;;;;13.02;8.68;;;20.60;99.90;;;;;;5095858;28;20038;-69
2023/09/08 07:44:07;;;;;;;16.40;9.20;;;20.60;99.90;;;;;;5096733;28;20024;-68
2023/09/08 07:46:33;;;;;;;12.35;8.55;;;20.70;99.90;;;;;;5094253;28;20043;-70
2023/09/08 07:48:59;;;;;;;14.38;9.63;;;20.80;99.90;;;;;;5094471;28;20027;-69
2023/09/08 07:51:28;;;;;;;13.65;9.15;;;20.80;99.90;;;;;;5093795;28;20040;-66
2023/09/08 07:53:54;;;;;;;10.60;8.18;;;20.80;99.90;;;;;;5093451;28;20051;-65
2023/09/08 07:56:19;;;;;;;12.02;9.15;;;20.90;99.90;;;;;;5094436;28;20051;-68
2023/09/08 07:58:45;;;;;;;12.88;9.63;;;21.00;99.90;;;;;;5092900;28;20021;-68
2023/09/08 08:01:12;;;;;;;12.18;9.43;;;21.10;99.90;;;;;;5095232;28;20035;-66
2023/09/08 08:03:38;;;;;;;15.68;11.20;;;21.10;99.90;;;;;;5094562;28;20032;-67
2023/09/08 08:06:03;;;;;;;16.52;9.52;;;21.20;99.90;;;;;;5093869;28;20028;-66
2023/09/08 08:08:30;;;;;;;14.43;9.70;;;21.20;99.90;;;;;;5095028;28;20477;-66
2023/09/08 08:10:55;;;;;;;13.88;9.38;;;21.30;99.90;;;;;;5095143;28;20051;-65
2023/09/08 08:13:21;;;;;;;15.80;10.43;;;21.60;99.90;;;;;;5093678;28;20389;-65
2023/09/08 08:15:47;;;;;;;13.32;10.15;;;21.70;99.90;;;;;;5092438;28;20035;-66
2023/09/08 08:18:13;;;;;;;11.73;10.02;;;21.80;99.90;;;;;;5093476;28;20024;-67
2023/09/08 08:20:39;;;;;;;16.38;9.65;;;21.80;99.90;;;;;;5093572;28;20103;-67
2023/09/08 08:23:06;;;;;;;14.95;10.07;;;21.90;99.90;;;;;;5091811;28;20024;-67
2023/09/08 08:25:32;;;;;;;11.73;8.85;;;21.90;99.90;;;;;;5076188;28;20044;-68
2023/09/08 08:27:59;;;;;;;17.58;11.15;;;22.00;99.90;;;;;;5075639;28;20024;-67
2023/09/08 08:30:25;;;;;;;18.77;10.63;;;22.20;99.90;;;;;;5073984;28;20044;-67
2023/09/08 08:32:53;;;;;;;14.23;9.98;;;22.20;99.90;;;;;;5075320;28;20396;-66
2023/09/08 08:35:21;;;;;;;19.85;11.27;;;22.40;99.90;;;;;;5074166;28;20331;-65
2023/09/08 08:37:47;;;;;;;18.52;10.80;;;22.30;99.90;;;;;;5088888;28;20025;-67
2023/09/08 08:40:13;;;;;;;14.38;10.40;;;22.50;99.90;;;;;;5073140;28;20031;-65
2023/09/08 08:42:40;;;;;;;11.25;9.63;;;22.80;99.90;;;;;;5073374;28;20134;-65
2023/09/08 08:45:06;;;;;;;13.68;9.48;;;23.00;99.90;;;;;;5071799;28;20498;-64
2023/09/08 08:47:32;;;;;;;13.48;9.25;;;24.00;99.90;;;;;;5072971;28;20068;-66
2023/09/08 08:49:58;;;;;;;;;;;26.70;99.90;;;;;;5088756;28;20028;-67
2023/09/08 08:52:25;;;;;;;10.93;8.25;;;29.90;99.30;;;;;;5072867;28;19947;-67
2023/09/08 08:54:50;;;;;;;10.27;7.95;;;32.40;94.90;;;;;;5086639;28;20148;-75
2023/09/08 08:57:16;;;;;;;11.80;7.63;;;34.00;93.00;;;;;;5092205;28;20024;-67
2023/09/08 08:59:42;;;;;;;11.73;7.78;;;36.10;90.30;;;;;;5093025;28;20021;-67
2023/09/08 09:02:10;;;;;;;7.78;6.97;;;37.50;85.90;;;;;;5093194;28;20081;-67
2023/09/08 09:04:37;;;;;;;10.40;7.57;;;38.70;81.50;;;;;;5094585;28;20436;-70
2023/09/08 09:07:03;;;;;;;10.18;7.38;;;38.50;77.80;;;;;;5094718;28;20153;-70
2023/09/08 09:09:29;;;;;;;7.97;6.55;;;38.30;77.50;;;;;;5094964;28;20538;-70
2023/09/08 09:11:55;;;;;;;11.10;7.45;;;38.60;76.10;;;;;;5102127;28;20063;-70
2023/09/08 09:14:22;;;;;;;10.30;7.57;;;38.60;76.00;;;;;;5100307;28;20020;-65
2023/09/08 09:16:48;;;;;;;11.38;7.60;;;38.50;75.40;;;;;;5095819;28;20012;-70
2023/09/08 09:19:25;;;;;;;9.43;6.97;;;39.00;74.00;;;;;;5098743;28;20084;-70
2023/09/08 09:21:54;;;;;;;7.00;6.30;;;38.70;74.60;;;;;;5098707;28;20020;-70
2023/09/08 09:24:48;;;;;;;8.82;6.95;;;39.70;73.20;;;;;;5095202;28;20030;-67
2023/09/08 09:27:14;;;;;;;9.52;6.82;;;40.90;71.30;;;;;;5030650;28;20029;-67
2023/09/08 09:29:48;;;;;;;33.67;11.75;;;42.00;68.90;;;;;;5030240;28;20532;-67
2023/09/08 09:32:14;;;;;;;10.35;9.30;;;41.70;68.40;;;;;;5030362;28;20496;-66
2023/09/08 09:34:56;;;;;;;8.68;6.50;;;40.70;68.40;;;;;;5032370;28;20077;-68
2023/09/08 09:37:22;;;;;;;7.53;6.72;;;41.30;68.70;;;;;;5017370;28;20215;-66
2023/09/08 09:39:52;;;;;;;9.45;7.28;;;41.80;67.00;;;;;;5033528;28;20033;-66
2023/09/08 09:42:18;;;;;;;9.70;6.60;;;41.00;67.50;;;;;;5016970;28;20021;-66
2023/09/08 09:44:44;;;;;;;8.40;6.25;;;40.60;68.60;;;;;;5033750;28;20038;-67
2023/09/08 09:47:10;;;;;;;6.88;6.20;;;41.40;67.60;;;;;;5033660;28;20524;-67
2023/09/08 09:49:46;;;;;;;7.55;6.43;;;41.70;67.40;;;;;;5033875;28;20033;-67
2023/09/08 09:52:13;;;;;;;6.55;6.05;;;42.30;66.30;;;;;;5034020;28;20042;-68
2023/09/08 09:54:42;;;;;;;8.77;6.15;;;42.50;66.20;;;;;;5033526;28;20025;-67
2023/09/08 09:57:12;;;;;;;8.68;6.25;;;42.70;65.40;;;;;;5033759;28;20526;-66
2023/09/08 09:59:39;;;;;;;7.03;5.57;;;42.60;65.00;;;;;;5034138;28;20083;-67
2023/09/08 10:02:14;;;;;;;11.40;6.30;;;42.30;65.20;;;;;;5033368;28;20040;-67
2023/09/08 10:04:43;;;;;;;7.80;6.35;;;42.00;65.20;;;;;;5073176;28;20102;-68
2023/09/08 10:07:09;;;;;;;8.48;6.65;;;41.80;65.10;;;;;;5075596;28;20028;-68
2023/09/08 10:09:37;;;;;;;10.23;6.60;;;41.80;65.50;;;;;;5075080;28;20433;-68
2023/09/08 10:12:04;;;;;;;6.57;6.03;;;42.30;64.80;;;;;;5075688;28;20032;-68
2023/09/08 10:14:32;;;;;;;7.30;6.35;;;42.50;64.30;;;;;;5075404;28;20017;-68
2023/09/08 10:17:00;;;;;;;8.57;6.50;;;43.20;64.00;;;;;;5075344;28;20494;-68
2023/09/08 10:19:27;;;;;;;7.65;6.63;;;43.00;63.20;;;;;;5075049;28;20016;-68
2023/09/08 10:21:58;;;;;;;7.25;6.20;;;43.20;63.10;;;;;;5075390;28;20039;-69
2023/09/08 10:24:29;;;;;;;9.88;6.45;;;43.40;62.60;;;;;;5085246;28;20045;-69
2023/09/08 10:27:08;;;;;;;7.65;6.30;;;43.60;62.60;;;;;;5095630;28;20027;-69
2023/09/08 10:29:34;;;;;;;8.45;6.28;;;44.10;62.30;;;;;;5095602;28;20361;-69
2023/09/08 10:32:01;;;;;;;7.72;6.35;;;43.90;61.90;;;;;;5095115;28;20095;-69
2023/09/08 10:34:28;;;;;;;7.65;6.45;;;43.60;61.60;;;;;;5095488;28;20020;-68
2023/09/08 10:36:54;;;;;;;9.15;6.85;;;43.80;61.60;;;;;;5095285;28;20020;-70
2023/09/08 10:39:38;;;;;;;10.27;6.45;;;44.00;61.40;;;;;;5094555;28;20022;-69
2023/09/08 10:42:16;;;;;;;12.50;7.10;;;43.60;61.40;;;;;;5093982;28;20449;-72
2023/09/08 10:44:55;;;;;;;7.25;6.50;;;43.70;61.40;;;;;;5094998;28;20424;-69
2023/09/08 10:47:34;;;;;;;10.52;6.13;;;43.80;61.30;;;;;;5094145;28;20024;-73
2023/09/08 10:50:00;;;;;;;7.43;6.50;;;44.00;61.20;;;;;;5095903;28;20020;-70
2023/09/08 10:52:26;;;;;;;7.30;5.60;;;44.00;61.00;;;;;;5095107;28;20497;-71
2023/09/08 10:54:54;;;;;;;12.60;6.40;;;44.50;60.50;;;;;;5093468;28;20115;-68
2023/09/08 10:57:24;;;;;;;9.10;6.55;;;42.10;62.10;;;;;;5094697;28;20055;-69
2023/09/08 11:00:11;;;;;;;7.70;6.05;;;42.30;62.00;;;;;;5093521;28;20024;-70
2023/09/08 11:02:42;;;;;;;9.15;6.40;;;42.00;62.00;;;;;;5096269;28;20490;-73
2023/09/08 11:05:13;;;;;;;8.93;6.85;;;40.50;63.10;;;;;;5096542;28;20032;-72
2023/09/08 11:07:40;;;;;;;31.30;7.28;;;38.70;65.50;;;;;;5095655;28;20035;-68
2023/09/08 11:10:07;;;;;;;9.35;6.90;;;35.70;68.80;;;;;;5094361;28;20359;-65
2023/09/08 11:12:33;;;;;;;7.57;6.75;;;33.10;73.30;;;;;;5093116;28;20028;-67
2023/09/08 11:15:03;;;;;;;9.40;7.13;;;32.20;75.60;;;;;;5094474;28;20103;-66
2023/09/08 11:17:30;;;;;;;7.72;6.25;;;31.30;77.80;;;;;;5094978;28;20036;-65
2023/09/08 11:19:56;;;;;;;14.68;7.53;;;30.80;79.20;;;;;;5094694;28;20078;-66
2023/09/08 11:22:24;;;;;;;10.60;8.70;;;30.40;80.30;;;;;;5094203;28;20024;-66
2023/09/08 11:24:51;;;;;;;8.95;7.32;;;30.40;80.90;;;;;;5092339;28;20028;-64
2023/09/08 11:27:17;;;;;;;8.50;6.63;;;30.20;82.10;;;;;;5095115;28;20475;-65
2023/09/08 11:29:44;;;;;;;9.15;7.05;;;30.20;82.10;;;;;;5093193;28;20051;-65
2023/09/08 11:32:10;;;;;;;10.10;7.18;;;30.00;82.80;;;;;;5094068;28;20031;-65
2023/09/08 11:34:36;;;;;;;10.77;7.57;;;29.90;82.80;;;;;;5092807;28;20020;-65
2023/09/08 11:37:28;;;;;;;13.27;7.20;;;29.60;83.50;;;;;;5092730;28;20019;-67
2023/09/08 11:39:53;;;;;;;11.32;6.63;;;29.30;84.20;;;;;;5090910;28;20039;-67
2023/09/08 11:42:21;;;;;;;7.40;6.43;;;29.10;84.70;;;;;;5093876;28;20020;-65
2023/09/08 11:44:47;;;;;;;12.65;7.28;;;29.00;85.30;;;;;;5093971;28;20020;-67
2023/09/08 11:47:15;;;;;;;11.38;7.20;;;29.00;85.80;;;;;;5094147;28;20031;-66
2023/09/08 11:49:41;;;;;;;12.23;7.20;;;28.90;85.80;;;;;;5101649;28;20020;-66
2023/09/08 11:52:07;;;;;;;8.98;7.35;;;28.90;86.30;;;;;;5097592;28;20099;-66
2023/09/08 11:54:37;;;;;;;9.15;6.60;;;28.80;86.90;;;;;;5096784;28;20367;-65
2023/09/08 11:57:04;;;;;;;10.07;7.15;;;28.90;87.00;;;;;;5100062;28;20107;-66
2023/09/08 11:59:33;;;;;;;9.57;7.20;;;29.00;87.20;;;;;;5098110;28;20016;-65
2023/09/08 12:01:58;;;;;;;10.50;6.40;;;28.80;87.30;;;;;;5093994;28;20056;-65
2023/09/08 12:04:25;;;;;;;9.98;6.85;;;28.80;87.70;;;;;;5093744;28;20058;-65
2023/09/08 12:06:53;;;;;;;7.32;6.40;;;28.80;87.70;;;;;;5093924;28;20016;-65
2023/09/08 12:09:20;;;;;;;10.55;6.82;;;28.80;88.10;;;;;;5093146;28;20074;-66
2023/09/08 12:11:46;;;;;;;8.70;6.45;;;28.90;88.30;;;;;;5093158;28;20020;-65
2023/09/08 12:14:14;;;;;;;8.70;6.65;;;28.90;87.80;;;;;;5093467;28;20028;-66
2023/09/08 12:16:41;;;;;;;7.57;6.25;;;28.90;88.10;;;;;;5091927;28;20016;-64
2023/09/08 12:19:07;;;;;;;9.45;6.47;;;28.90;87.90;;;;;;5093852;28;20016;-65
2023/09/08 12:21:55;;;;;;;9.07;6.25;;;29.10;87.50;;;;;;5093229;28;20105;-65
2023/09/08 12:24:49;;;;;;;8.23;5.97;;;29.10;87.90;;;;;;5093270;28;20024;-66
2023/09/08 12:27:16;;;;;;;7.60;5.70;;;29.00;88.00;;;;;;5093875;28;20386;-67
2023/09/08 12:29:51;;;;;;;10.32;6.50;;;29.10;87.80;;;;;;5092455;28;20113;-66
2023/09/08 12:32:16;;;;;;;6.65;5.90;;;29.10;87.90;;;;;;5091999;28;20028;-65
2023/09/08 12:34:43;;;;;;;8.07;6.35;;;29.10;88.10;;;;;;5093649;28;20077;-66
2023/09/08 12:37:11;;;;;;;15.10;6.88;;;29.10;87.60;;;;;;5092017;28;20497;-67
2023/09/08 12:39:38;;;;;;;9.05;7.20;;;29.10;87.60;;;;;;5093175;28;20103;-65
2023/09/08 12:42:04;;;;;;;8.05;6.32;;;29.10;88.20;;;;;;5093235;28;20470;-66